ADDS METAR Data

Data at: 1605 UTC 20 May 2018

METAR for:KFOK (Westhampton/Gabreski, NY, US)
Text:KFOK 201553Z 23014KT 3SM BR OVC003 16/14 A2997 RMK AO2 SLP149 T01610139
Temperature: 16.1°C ( 61°F)
Dewpoint: 13.9°C ( 57°F) [RH = 87%]
Pressure (altimeter):29.97 inches Hg (1015.0 mb) [Sea level pressure: 1014.9 mb]
Winds:from the SW (230 degrees) at 16 MPH (14 knots; 7.2 m/s)
Visibility: 3 sm ( 5 km)
Ceiling:300 feet AGL
Clouds: overcast cloud deck at 300 feet AGL
Weather:BR (mist)